KMXO/MXO METAR and TAF weather

Enter ICAO airport designator
Station Type Date Time Source
KMXO METAR 2022/01/25 04:35 UTC NOAA

KMXO 250435Z AUTO 31007KT 10SM CLR M17/M19 A3010 RMK AO2


Station Type Date Time Source
KMXO Decoded METAR 2022/01/25 04:35 UTC NOAA

Monticello Municipal, IA, United States (KMXO) 42-14N 091-10W
Jan 24, 2022 - 11:35 PM EST / 2022.01.25 0435 UTC
Wind: from the NW (310 degrees) at 8 MPH (7 KT):0
Visibility: 10 mile(s):0
Sky conditions: clear
Temperature: 1 F (-17 C)
Windchill: -13 F (-25 C):2
Dew Point: -2 F (-19 C)
Relative Humidity: 84%
Pressure (altimeter): 30.1 in. Hg (1019 hPa)
ob: KMXO 250435Z AUTO 31007KT 10SM CLR M17/M19 A3010 RMK AO2
cycle: 4

Station Type Date Time Source
KMXO TAF UTC NOAA

Error!

Example: see airport list